Time;durP1;ratioP1;P1;durP2;ratioP2;P2;SDS_P1;SDS_P2;PMS_P1;PMS_P2;Temp;Humidity;BMP_temperature;BMP_pressure;BME280_temperature;BME280_humidity;BME280_pressure;Samples;Min_cycle;Max_cycle;Signal;HPM_P1;HPM_P2
2023/05/30 00:00:27;;;;;;;15.70;3.60;;;;;;;;;;4961696;28;20058;-74
2023/05/30 00:02:52;;;;;;;12.77;3.28;;;;;;;;;;4961927;28;20031;-73
2023/05/30 00:05:17;;;;;;;16.88;3.88;;;;;;;;;;4960529;28;20041;-73
2023/05/30 00:07:43;;;;;;;11.27;3.45;;;;;;;;;;4961993;28;20030;-75
2023/05/30 00:10:10;;;;;;;15.75;4.05;;;;;;;;;;4959367;28;20047;-74
2023/05/30 00:12:36;;;;;;;17.10;4.10;;;;;;;;;;4961208;28;20047;-74
2023/05/30 00:15:04;;;;;;;14.68;3.40;;;;;;;;;;4960074;28;20050;-73
2023/05/30 00:17:32;;;;;;;15.93;3.30;;;;;;;;;;4960997;28;20114;-74
2023/05/30 00:19:58;;;;;;;13.60;4.07;;;;;;;;;;4961207;28;20039;-72
2023/05/30 00:22:23;;;;;;;16.10;3.70;;;;;;;;;;4959538;28;20498;-74
2023/05/30 00:24:49;;;;;;;15.15;3.38;;;;;;;;;;4943521;28;20501;-73
2023/05/30 00:27:15;;;;;;;12.88;3.33;;;;;;;;;;4960915;28;20579;-74
2023/05/30 00:29:40;;;;;;;14.45;3.47;;;;;;;;;;4959926;28;20069;-72
2023/05/30 00:32:06;;;;;;;13.98;3.40;;;;;;;;;;4962246;28;20035;-74
2023/05/30 00:34:31;;;;;;;13.73;3.65;;;;;;;;;;4960131;28;20241;-75
2023/05/30 00:36:56;;;;;;;10.90;3.13;;;;;;;;;;4970228;28;20027;-72
2023/05/30 00:39:24;;;;;;;13.70;3.47;;;;;;;;;;5063139;28;20025;-73
2023/05/30 00:41:49;;;;;;;10.30;3.47;;;;;;;;;;5062169;28;20028;-74
2023/05/30 00:44:14;;;;;;;14.00;3.40;;;;;;;;;;5062682;28;20020;-75
2023/05/30 00:46:40;;;;;;;13.27;3.58;;;;;;;;;;5044016;28;20028;-74
2023/05/30 00:49:05;;;;;;;14.10;3.50;;;;;;;;;;5063249;28;20162;-74
2023/05/30 00:51:31;;;;;;;13.30;3.53;;;;;;;;;;5062580;28;20039;-73
2023/05/30 00:53:57;;;;;;;18.00;4.00;;;;;;;;;;5062504;28;20578;-74
2023/05/30 00:56:23;;;;;;;15.27;3.28;;;;;;;;;;5062867;28;20033;-73
2023/05/30 00:58:49;;;;;;;14.38;3.70;;;;;;;;;;5063282;28;20029;-74
2023/05/30 01:01:14;;;;;;;15.63;3.67;;;;;;;;;;5061065;28;20024;-74
2023/05/30 01:03:40;;;;;;;14.98;3.63;;;;;;;;;;5063160;28;20040;-74
2023/05/30 01:06:06;;;;;;;12.82;3.60;;;;;;;;;;5062988;28;20032;-74
2023/05/30 01:08:32;;;;;;;13.68;4.43;;;;;;;;;;5063086;28;20029;-75
2023/05/30 01:11:17;;;;;;;18.40;4.22;;;;;;;;;;5061479;28;20025;-74
2023/05/30 01:14:01;;;;;;;12.55;3.75;;;;;;;;;;5061768;28;20033;-75
2023/05/30 01:16:28;;;;;;;17.00;4.68;;;;;;;;;;5060970;28;20033;-74
2023/05/30 01:18:58;;;;;;;15.95;3.90;;;;;;;;;;5061573;28;20032;-73
2023/05/30 01:21:24;;;;;;;17.60;4.35;;;;;;;;;;5062153;28;20029;-73
2023/05/30 01:24:06;;;;;;;15.55;4.05;;;;;;;;;;5061421;28;20064;-74
2023/05/30 01:26:40;;;;;;;12.18;3.88;;;;;;;;;;5061310;28;20111;-73
2023/05/30 01:29:06;;;;;;;12.60;4.07;;;;;;;;;;5061623;28;20082;-76
2023/05/30 01:31:32;;;;;;;14.68;4.05;;;;;;;;;;5062102;28;20829;-74
2023/05/30 01:33:58;;;;;;;17.27;4.03;;;;;;;;;;5061723;28;20070;-73
2023/05/30 01:36:23;;;;;;;12.63;3.58;;;;;;;;;;5060275;28;20024;-75
2023/05/30 01:38:49;;;;;;;16.17;3.72;;;;;;;;;;4973754;28;20030;-75
2023/05/30 01:41:21;;;;;;;9.82;3.53;;;;;;;;;;4958592;28;20054;-74
2023/05/30 01:43:56;;;;;;;14.52;4.07;;;;;;;;;;4960510;28;20023;-75
2023/05/30 01:46:21;;;;;;;12.50;4.00;;;;;;;;;;4959631;28;20031;-75
2023/05/30 01:48:52;;;;;;;15.18;4.20;;;;;;;;;;4960007;28;20023;-75
2023/05/30 01:51:20;;;;;;;14.95;4.70;;;;;;;;;;4960015;28;20141;-74
2023/05/30 01:53:47;;;;;;;12.20;4.38;;;;;;;;;;4959676;28;20030;-75
2023/05/30 01:56:13;;;;;;;13.32;3.78;;;;;;;;;;4958328;28;20512;-75
2023/05/30 01:58:39;;;;;;;13.95;4.13;;;;;;;;;;4942054;28;20019;-74
2023/05/30 02:01:06;;;;;;;14.57;3.97;;;;;;;;;;4957676;28;20544;-74
2023/05/30 02:03:31;;;;;;;11.60;3.60;;;;;;;;;;4958400;28;20091;-74
2023/05/30 02:05:56;;;;;;;16.90;3.92;;;;;;;;;;4963036;28;20176;-73
2023/05/30 02:08:22;;;;;;;11.27;3.72;;;;;;;;;;4962698;28;20042;-73
2023/05/30 02:10:47;;;;;;;13.93;4.13;;;;;;;;;;4963630;28;20019;-74
2023/05/30 02:13:15;;;;;;;13.55;4.10;;;;;;;;;;4963268;28;20206;-73
2023/05/30 02:15:40;;;;;;;14.35;4.03;;;;;;;;;;4962793;28;20046;-74
2023/05/30 02:18:06;;;;;;;10.88;3.83;;;;;;;;;;4960338;28;20038;-75
2023/05/30 02:20:31;;;;;;;12.68;3.95;;;;;;;;;;4962942;28;20038;-74
2023/05/30 02:22:56;;;;;;;16.38;4.35;;;;;;;;;;4960548;28;20111;-74
2023/05/30 02:25:23;;;;;;;15.57;4.13;;;;;;;;;;4962852;28;20023;-75
2023/05/30 02:27:50;;;;;;;12.55;3.70;;;;;;;;;;4961003;28;20088;-73
2023/05/30 02:30:16;;;;;;;12.77;4.32;;;;;;;;;;4945391;28;20105;-74
2023/05/30 02:32:41;;;;;;;16.40;4.47;;;;;;;;;;4944857;28;20161;-75
2023/05/30 02:35:07;;;;;;;15.25;3.92;;;;;;;;;;4962386;28;20045;-73
2023/05/30 02:37:32;;;;;;;15.10;4.00;;;;;;;;;;4997569;28;20396;-73
2023/05/30 02:39:59;;;;;;;14.68;4.72;;;;;;;;;;5064067;28;20451;-74
2023/05/30 02:42:25;;;;;;;16.33;4.15;;;;;;;;;;5096635;28;20056;-74
2023/05/30 02:44:50;;;;;;;14.40;4.05;;;;;;;;;;5064719;28;20025;-75
2023/05/30 02:47:16;;;;;;;14.60;3.92;;;;;;;;;;5062923;28;20505;-74
2023/05/30 02:49:43;;;;;;;11.55;4.05;;;;;;;;;;5063683;28;20032;-74
2023/05/30 02:52:09;;;;;;;10.27;3.80;;;;;;;;;;5064858;28;20029;-75
2023/05/30 02:54:34;;;;;;;11.23;3.45;;;;;;;;;;5061850;28;20254;-75
2023/05/30 02:57:00;;;;;;;14.18;3.83;;;;;;;;;;5063952;28;20436;-74
2023/05/30 02:59:25;;;;;;;17.42;4.32;;;;;;;;;;5063667;28;20115;-73
2023/05/30 03:01:51;;;;;;;11.82;3.70;;;;;;;;;;5062013;28;20016;-74
2023/05/30 03:04:16;;;;;;;14.02;3.42;;;;;;;;;;5063644;28;20113;-74
2023/05/30 03:06:41;;;;;;;14.05;4.00;;;;;;;;;;5063789;28;20086;-73
2023/05/30 03:09:07;;;;;;;11.07;3.53;;;;;;;;;;5063228;28;20032;-74
2023/05/30 03:11:32;;;;;;;10.82;3.30;;;;;;;;;;5078180;28;20473;-74
2023/05/30 03:13:57;;;;;;;13.27;4.40;;;;;;;;;;5064495;28;20035;-74
2023/05/30 03:16:22;;;;;;;14.60;4.05;;;;;;;;;;5062456;28;20033;-74
2023/05/30 03:18:49;;;;;;;11.65;3.67;;;;;;;;;;5096771;28;20033;-75
2023/05/30 03:21:15;;;;;;;19.58;4.18;;;;;;;;;;5061722;28;20032;-75
2023/05/30 03:23:40;;;;;;;9.57;3.55;;;;;;;;;;5063409;28;20381;-75
2023/05/30 03:26:06;;;;;;;16.42;4.05;;;;;;;;;;5061097;28;20100;-73
2023/05/30 03:28:32;;;;;;;10.18;3.70;;;;;;;;;;5061907;28;20025;-75
2023/05/30 03:30:57;;;;;;;12.93;3.85;;;;;;;;;;5062670;28;20035;-73
2023/05/30 03:33:23;;;;;;;9.20;3.50;;;;;;;;;;5063193;28;20063;-75
2023/05/30 03:35:48;;;;;;;11.38;3.75;;;;;;;;;;5061311;28;20052;-74
2023/05/30 03:38:14;;;;;;;11.77;3.88;;;;;;;;;;4999372;28;20035;-74
2023/05/30 03:40:41;;;;;;;19.33;4.47;;;;;;;;;;4959759;28;20449;-75
2023/05/30 03:43:09;;;;;;;15.20;3.90;;;;;;;;;;4959835;28;20065;-74
2023/05/30 03:45:34;;;;;;;9.25;3.42;;;;;;;;;;4961601;28;20031;-74
2023/05/30 03:48:02;;;;;;;13.73;4.63;;;;;;;;;;4959749;28;20057;-75
2023/05/30 03:50:27;;;;;;;16.55;4.38;;;;;;;;;;4959475;28;20050;-73
2023/05/30 03:52:52;;;;;;;13.20;4.57;;;;;;;;;;4961601;28;20494;-73
2023/05/30 03:55:18;;;;;;;14.60;3.95;;;;;;;;;;4960058;28;20047;-74
2023/05/30 03:57:43;;;;;;;12.20;4.18;;;;;;;;;;4943599;28;20050;-73
2023/05/30 04:00:09;;;;;;;14.82;4.03;;;;;;;;;;4961310;28;20395;-74
2023/05/30 04:02:36;;;;;;;12.93;3.75;;;;;;;;;;4959009;28;20088;-73
2023/05/30 04:05:05;;;;;;;12.70;4.22;;;;;;;;;;4959286;28;20038;-72
2023/05/30 04:07:35;;;;;;;14.50;3.92;;;;;;;;;;4961030;28;20258;-74
2023/05/30 04:10:00;;;;;;;10.63;3.63;;;;;;;;;;4960433;28;20475;-73
2023/05/30 04:12:25;;;;;;;18.45;4.03;;;;;;;;;;4961420;28;20043;-74
2023/05/30 04:14:51;;;;;;;14.10;4.00;;;;;;;;;;4960605;28;20042;-74
2023/05/30 04:17:18;;;;;;;15.10;4.40;;;;;;;;;;4961207;28;20035;-75
2023/05/30 04:19:43;;;;;;;22.25;4.15;;;;;;;;;;4961103;28;20046;-72
2023/05/30 04:22:11;;;;;;;15.93;4.05;;;;;;;;;;4961352;28;20043;-74
2023/05/30 04:24:36;;;;;;;10.75;3.50;;;;;;;;;;4960925;28;20042;-74
2023/05/30 04:27:02;;;;;;;13.57;3.63;;;;;;;;;;4961471;28;20043;-74
2023/05/30 04:29:27;;;;;;;13.90;3.97;;;;;;;;;;4960907;28;20031;-74
2023/05/30 04:31:52;;;;;;;17.85;3.78;;;;;;;;;;4961332;28;20035;-75
2023/05/30 04:34:18;;;;;;;11.43;3.83;;;;;;;;;;4958348;28;20042;-75
2023/05/30 04:36:44;;;;;;;13.93;3.53;;;;;;;;;;4958736;28;20035;-73
2023/05/30 04:39:09;;;;;;;13.98;3.65;;;;;;;;;;5062220;28;20048;-72
2023/05/30 04:41:35;;;;;;;11.77;3.40;;;;;;;;;;5060182;28;20365;-74
2023/05/30 04:44:03;;;;;;;16.42;4.07;;;;;;;;;;5061732;28;20067;-74
2023/05/30 04:46:31;;;;;;;12.68;3.38;;;;;;;;;;5043052;28;20082;-74
2023/05/30 04:49:00;;;;;;;17.77;3.83;;;;;;;;;;5061034;28;20579;-74
2023/05/30 04:51:28;;;;;;;13.63;3.83;;;;;;;;;;5061492;28;20048;-75
2023/05/30 04:53:53;;;;;;;13.07;3.40;;;;;;;;;;5062202;28;20305;-73
2023/05/30 04:56:22;;;;;;;14.25;3.22;;;;;;;;;;5059914;28;20094;-75
2023/05/30 04:58:48;;;;;;;13.85;3.42;;;;;;;;;;5062208;28;20028;-73
2023/05/30 05:01:14;;;;;;;15.20;3.90;;;;;;;;;;5060322;28;20032;-73
2023/05/30 05:03:40;;;;;;;13.95;3.58;;;;;;;;;;5061519;28;20029;-73
2023/05/30 05:06:08;;;;;;;16.92;3.80;;;;;;;;;;5061925;28;20033;-75
2023/05/30 05:08:35;;;;;;;11.27;3.97;;;;;;;;;;5059988;28;20032;-73
2023/05/30 05:11:01;;;;;;;14.65;3.70;;;;;;;;;;5061727;28;20025;-75
2023/05/30 05:13:26;;;;;;;21.52;5.07;;;;;;;;;;5061531;28;20500;-75
2023/05/30 05:15:52;;;;;;;13.95;4.15;;;;;;;;;;5061643;28;20120;-74
2023/05/30 05:18:17;;;;;;;14.85;3.80;;;;;;;;;;5061489;28;20396;-74
2023/05/30 05:20:43;;;;;;;15.25;3.80;;;;;;;;;;5043178;28;20033;-73
2023/05/30 05:23:08;;;;;;;18.85;3.90;;;;;;;;;;5061453;28;20035;-74
2023/05/30 05:25:33;;;;;;;15.73;3.65;;;;;;;;;;5061436;28;20119;-74
2023/05/30 05:27:59;;;;;;;13.77;3.70;;;;;;;;;;5058063;28;20028;-73
2023/05/30 05:30:25;;;;;;;11.23;3.30;;;;;;;;;;5061743;28;20021;-74
2023/05/30 05:32:51;;;;;;;15.05;4.45;;;;;;;;;;5063415;28;20020;-73
2023/05/30 05:35:16;;;;;;;13.07;3.72;;;;;;;;;;5060062;28;20047;-74
2023/05/30 05:37:41;;;;;;;14.65;4.47;;;;;;;;;;5061529;28;20029;-74
2023/05/30 05:40:08;;;;;;;14.88;3.90;;;;;;;;;;5060264;28;20036;-74
2023/05/30 05:42:33;;;;;;;16.23;4.68;;;;;;;;;;5060554;28;20146;-74
2023/05/30 05:44:59;;;;;;;17.50;4.32;;;;;;;;;;5060035;28;20119;-73
2023/05/30 05:47:24;;;;;;;15.52;3.75;;;;;;;;;;5059262;28;20031;-72
2023/05/30 05:49:51;;;;;;;15.68;4.47;;;;;;;;;;5061686;28;20033;-72
2023/05/30 05:52:16;;;;;;;15.23;3.95;;;;;;;;;;5065027;28;20031;-73
2023/05/30 05:54:41;;;;;;;13.57;4.13;;;;;;;;;;5052460;28;20036;-74
2023/05/30 05:57:07;;;;;;;14.10;3.72;;;;;;;;;;5061551;28;20024;-71
2023/05/30 05:59:32;;;;;;;15.00;3.78;;;;;;;;;;5060322;28;20056;-73
2023/05/30 06:01:58;;;;;;;9.98;4.22;;;;;;;;;;5060422;28;20032;-73
2023/05/30 06:04:23;;;;;;;12.95;4.00;;;;;;;;;;5060985;28;20545;-75
2023/05/30 06:06:49;;;;;;;14.45;3.92;;;;;;;;;;5061843;28;20029;-74
2023/05/30 06:09:15;;;;;;;12.60;3.22;;;;;;;;;;5060879;28;20035;-74
2023/05/30 06:11:43;;;;;;;10.32;3.40;;;;;;;;;;5061796;28;20259;-75
2023/05/30 06:14:08;;;;;;;19.13;4.05;;;;;;;;;;5053854;28;20032;-74
2023/05/30 06:16:38;;;;;;;14.10;3.50;;;;;;;;;;5060101;28;20424;-73
2023/05/30 06:19:05;;;;;;;12.18;3.50;;;;;;;;;;4944956;28;20069;-75
2023/05/30 06:21:32;;;;;;;12.20;3.20;;;;;;;;;;4940247;28;20373;-73
2023/05/30 06:23:59;;;;;;;14.10;3.35;;;;;;;;;;4941080;28;20093;-75
2023/05/30 06:26:25;;;;;;;10.77;3.13;;;;;;;;;;4940762;28;20034;-75
2023/05/30 06:28:50;;;;;;;11.50;3.00;;;;;;;;;;4923919;28;20028;-75
2023/05/30 06:31:15;;;;;;;14.15;3.45;;;;;;;;;;4941040;28;20495;-73
2023/05/30 06:33:41;;;;;;;11.10;3.38;;;;;;;;;;4939251;28;20526;-77
2023/05/30 06:36:07;;;;;;;17.73;4.55;;;;;;;;;;4941261;28;20491;-73
2023/05/30 06:38:32;;;;;;;12.90;3.20;;;;;;;;;;5031119;28;20032;-76
2023/05/30 06:40:57;;;;;;;13.45;4.00;;;;;;;;;;5061591;28;20098;-76
2023/05/30 06:43:23;;;;;;;13.90;3.53;;;;;;;;;;5059357;28;20108;-75
2023/05/30 06:45:48;;;;;;;13.25;3.13;;;;;;;;;;5059269;28;20032;-76
2023/05/30 06:48:16;;;;;;;11.73;3.28;;;;;;;;;;5061051;28;20047;-77
2023/05/30 06:50:41;;;;;;;12.55;3.67;;;;;;;;;;5062797;28;20020;-76
2023/05/30 06:53:06;;;;;;;14.13;3.53;;;;;;;;;;5064415;28;20029;-76
2023/05/30 06:55:31;;;;;;;13.43;3.83;;;;;;;;;;5062628;28;20037;-78
2023/05/30 06:57:57;;;;;;;10.55;3.10;;;;;;;;;;5064092;28;20554;-76
2023/05/30 07:00:24;;;;;;;13.38;4.10;;;;;;;;;;5064521;28;20029;-76
2023/05/30 07:02:52;;;;;;;11.82;3.08;;;;;;;;;;5063491;28;20040;-76
2023/05/30 07:05:17;;;;;;;9.52;3.35;;;;;;;;;;5065057;28;20078;-76
2023/05/30 07:07:45;;;;;;;11.05;3.50;;;;;;;;;;5064472;28;20024;-76
2023/05/30 07:10:15;;;;;;;12.35;3.45;;;;;;;;;;5064906;28;20055;-76
2023/05/30 07:12:41;;;;;;;17.35;4.15;;;;;;;;;;5062192;28;20170;-77
2023/05/30 07:15:06;;;;;;;14.93;4.18;;;;;;;;;;5062283;28;20120;-76
2023/05/30 07:17:32;;;;;;;11.25;3.30;;;;;;;;;;5010388;28;20114;-76
2023/05/30 07:20:00;;;;;;;11.23;3.30;;;;;;;;;;4960462;28;20108;-74
2023/05/30 07:22:28;;;;;;;11.98;3.17;;;;;;;;;;4962525;28;20031;-75
2023/05/30 07:24:53;;;;;;;13.88;3.53;;;;;;;;;;4962038;28;20479;-75
2023/05/30 07:27:19;;;;;;;11.25;3.08;;;;;;;;;;4962550;28;20030;-74
2023/05/30 07:29:44;;;;;;;14.15;3.63;;;;;;;;;;4962095;28;20080;-75
2023/05/30 07:32:12;;;;;;;13.23;3.85;;;;;;;;;;4962488;28;20035;-76
2023/05/30 07:34:38;;;;;;;8.55;3.17;;;;;;;;;;4960209;28;20668;-76
2023/05/30 07:37:05;;;;;;;10.73;3.00;;;;;;;;;;4961174;28;20069;-76
2023/05/30 07:39:31;;;;;;;12.85;2.80;;;;;;;;;;4960494;28;20117;-76
2023/05/30 07:41:56;;;;;;;12.25;3.30;;;;;;;;;;4962943;28;20396;-76
2023/05/30 07:44:21;;;;;;;13.13;3.05;;;;;;;;;;4962469;28;20447;-76
2023/05/30 07:46:47;;;;;;;9.18;2.97;;;;;;;;;;4963117;28;20350;-79
2023/05/30 07:49:19;;;;;;;12.60;3.15;;;;;;;;;;4992245;28;20188;-77
2023/05/30 07:51:44;;;;;;;10.13;3.25;;;;;;;;;;4962309;28;20088;-72
2023/05/30 07:54:09;;;;;;;9.27;2.60;;;;;;;;;;4962022;28;20039;-75
2023/05/30 07:56:37;;;;;;;13.25;3.28;;;;;;;;;;4960749;28;20030;-76
2023/05/30 07:59:03;;;;;;;8.30;2.78;;;;;;;;;;4962575;28;20027;-76
2023/05/30 08:01:32;;;;;;;9.52;2.97;;;;;;;;;;4960747;28;20030;-76
2023/05/30 08:03:58;;;;;;;8.98;2.45;;;;;;;;;;4963006;28;20030;-75
2023/05/30 08:06:23;;;;;;;18.42;3.03;;;;;;;;;;4961586;28;20023;-75
2023/05/30 08:08:51;;;;;;;10.15;2.90;;;;;;;;;;4964227;28;20115;-76
2023/05/30 08:11:17;;;;;;;11.55;2.75;;;;;;;;;;4960675;28;20500;-75
2023/05/30 08:13:43;;;;;;;9.75;3.15;;;;;;;;;;4961570;28;20026;-74
2023/05/30 08:16:10;;;;;;;10.48;2.67;;;;;;;;;;4961059;28;20588;-75
2023/05/30 08:18:36;;;;;;;6.13;2.40;;;;;;;;;;4962786;28;20050;-73
2023/05/30 08:21:01;;;;;;;5.18;2.40;;;;;;;;;;4962113;28;20061;-75
2023/05/30 08:23:27;;;;;;;9.18;2.92;;;;;;;;;;4962851;28;20041;-75
2023/05/30 08:25:52;;;;;;;6.28;2.70;;;;;;;;;;4959777;28;20022;-74
2023/05/30 08:28:18;;;;;;;7.95;2.70;;;;;;;;;;4960620;28;20037;-78
2023/05/30 08:30:48;;;;;;;8.80;3.20;;;;;;;;;;4961646;28;20118;-75
2023/05/30 08:33:14;;;;;;;7.30;2.70;;;;;;;;;;4961898;28;20023;-76
2023/05/30 08:35:40;;;;;;;7.50;2.50;;;;;;;;;;4992408;28;20066;-76
2023/05/30 08:38:05;;;;;;;8.10;3.10;;;;;;;;;;5018863;28;20067;-76
2023/05/30 08:40:30;;;;;;;6.93;2.58;;;;;;;;;;5043775;28;20119;-73
2023/05/30 08:42:56;;;;;;;9.50;2.92;;;;;;;;;;5062974;28;20055;-76
2023/05/30 08:45:22;;;;;;;9.15;2.90;;;;;;;;;;5060569;28;20504;-75
2023/05/30 08:47:52;;;;;;;7.72;2.95;;;;;;;;;;5061235;28;20158;-76
2023/05/30 08:50:20;;;;;;;5.95;2.70;;;;;;;;;;5062041;28;20507;-76
2023/05/30 08:52:46;;;;;;;9.50;3.05;;;;;;;;;;5061766;28;20047;-75
2023/05/30 08:55:13;;;;;;;8.07;3.03;;;;;;;;;;5062958;28;20082;-75
2023/05/30 08:57:57;;;;;;;7.93;2.80;;;;;;;;;;5062093;28;20029;-76
2023/05/30 09:00:23;;;;;;;11.98;3.13;;;;;;;;;;5061504;28;20082;-74
2023/05/30 09:02:51;;;;;;;5.82;2.20;;;;;;;;;;5094022;28;20449;-75
2023/05/30 09:05:20;;;;;;;8.38;2.92;;;;;;;;;;5061915;28;20042;-77
2023/05/30 09:07:47;;;;;;;5.78;2.50;;;;;;;;;;5061259;28;20509;-76
2023/05/30 09:10:14;;;;;;;7.60;2.63;;;;;;;;;;5062487;28;20527;-76
2023/05/30 09:12:41;;;;;;;9.18;3.00;;;;;;;;;;5062075;28;20025;-77
2023/05/30 09:15:07;;;;;;;6.28;3.15;;;;;;;;;;5002269;28;20058;-72
2023/05/30 09:17:32;;;;;;;8.45;2.72;;;;;;;;;;4949883;28;20030;-77
2023/05/30 09:19:58;;;;;;;6.65;2.53;;;;;;;;;;4959611;28;20042;-76
2023/05/30 09:22:25;;;;;;;6.00;2.45;;;;;;;;;;4958965;28;20219;-76
2023/05/30 09:24:54;;;;;;;6.18;2.90;;;;;;;;;;4961097;28;20062;-73
2023/05/30 09:27:20;;;;;;;6.47;2.70;;;;;;;;;;4979610;28;20035;-78
2023/05/30 09:29:47;;;;;;;9.73;2.90;;;;;;;;;;4940536;28;20085;-78
2023/05/30 09:32:13;;;;;;;5.82;2.55;;;;;;;;;;4939694;28;20063;-75
2023/05/30 09:34:38;;;;;;;4.75;2.10;;;;;;;;;;4939999;28;20071;-77
2023/05/30 09:37:04;;;;;;;5.63;2.40;;;;;;;;;;4957254;28;20037;-76
2023/05/30 09:39:29;;;;;;;5.43;2.40;;;;;;;;;;5043254;28;20382;-76
2023/05/30 09:41:56;;;;;;;6.75;2.35;;;;;;;;;;5061654;28;20480;-76
2023/05/30 09:44:21;;;;;;;9.25;2.65;;;;;;;;;;5037381;28;20261;-72
2023/05/30 09:46:47;;;;;;;8.82;2.90;;;;;;;;;;4960266;28;20051;-71
2023/05/30 09:49:13;;;;;;;4.50;2.38;;;;;;;;;;4951147;28;20057;-71
2023/05/30 09:51:38;;;;;;;3.58;2.38;;;;;;;;;;4944806;28;20039;-70
2023/05/30 09:54:04;;;;;;;7.63;2.45;;;;;;;;;;4940912;28;20035;-70
2023/05/30 09:56:34;;;;;;;5.80;2.25;;;;;;;;;;4941266;28;20038;-72
2023/05/30 09:59:03;;;;;;;247.77;23.92;;;;;;;;;;4941265;28;20498;-71
2023/05/30 10:01:55;;;;;;;26.52;3.75;;;;;;;;;;4943451;28;20217;-70
2023/05/30 10:04:21;;;;;;;13.20;3.20;;;;;;;;;;4949585;28;20019;-71
2023/05/30 10:06:48;;;;;;;8.25;2.40;;;;;;;;;;4958613;28;20027;-70
2023/05/30 10:09:13;;;;;;;6.03;2.10;;;;;;;;;;4989870;28;20037;-70
2023/05/30 10:11:39;;;;;;;5.05;2.03;;;;;;;;;;4959819;28;20106;-70
2023/05/30 10:14:08;;;;;;;4.80;1.98;;;;;;;;;;4957128;28;20034;-71
2023/05/30 10:16:56;;;;;;;3.35;1.88;;;;;;;;;;4959430;28;20042;-70
2023/05/30 10:19:29;;;;;;;4.60;1.55;;;;;;;;;;4959315;28;20433;-70
2023/05/30 10:21:54;;;;;;;5.75;2.08;;;;;;;;;;4959405;28;20031;-70
2023/05/30 10:24:20;;;;;;;3.35;1.73;;;;;;;;;;4959904;28;20034;-69
2023/05/30 10:26:53;;;;;;;2.40;1.55;;;;;;;;;;4962696;28;20276;-70
2023/05/30 10:29:21;;;;;;;3.90;1.52;;;;;;;;;;4963209;28;20387;-70
2023/05/30 10:31:49;;;;;;;4.15;1.55;;;;;;;;;;4963614;28;20089;-71
2023/05/30 10:34:16;;;;;;;3.60;1.40;;;;;;;;;;4946070;28;20037;-71
2023/05/30 10:36:42;;;;;;;3.58;1.42;;;;;;;;;;4962975;28;20047;-70
2023/05/30 10:39:17;;;;;;;4.35;1.63;;;;;;;;;;5064071;28;20055;-70
2023/05/30 10:41:47;;;;;;;2.88;1.50;;;;;;;;;;5062902;28;20409;-71
2023/05/30 10:44:28;;;;;;;3.22;1.35;;;;;;;;;;5064259;28;20075;-70
2023/05/30 10:47:06;;;;;;;3.42;1.42;;;;;;;;;;5064012;28;20052;-70
2023/05/30 10:49:32;;;;;;;6.72;1.90;;;;;;;;;;5062104;28;20070;-69
2023/05/30 10:52:01;;;;;;;3.55;1.50;;;;;;;;;;5044681;28;20056;-69
2023/05/30 10:54:30;;;;;;;3.08;1.55;;;;;;;;;;5061947;28;20402;-70
2023/05/30 10:56:58;;;;;;;7.07;1.65;;;;;;;;;;5063853;28;20024;-70
2023/05/30 10:59:26;;;;;;;5.80;1.60;;;;;;;;;;5063790;28;20029;-71
2023/05/30 11:01:59;;;;;;;7.55;1.90;;;;;;;;;;5064459;28;20035;-70
2023/05/30 11:04:29;;;;;;;3.58;1.02;;;;;;;;;;5061776;28;20036;-70
2023/05/30 11:06:55;;;;;;;3.33;1.20;;;;;;;;;;5062274;28;20087;-70
2023/05/30 11:09:20;;;;;;;3.15;1.30;;;;;;;;;;5062925;28;20055;-69
2023/05/30 11:11:56;;;;;;;5.50;1.45;;;;;;;;;;5062624;28;20043;-66
2023/05/30 11:14:25;;;;;;;3.92;1.00;;;;;;;;;;5063208;28;20117;-70
2023/05/30 11:16:53;;;;;;;10.80;1.65;;;;;;;;;;5063034;28;20047;-69
2023/05/30 11:19:19;;;;;;;7.32;1.40;;;;;;;;;;5062128;28;20261;-68
2023/05/30 11:21:55;;;;;;;9.00;1.60;;;;;;;;;;5061447;28;20040;-71
2023/05/30 11:24:21;;;;;;;7.82;1.10;;;;;;;;;;4952840;28;20031;-69
2023/05/30 11:26:53;;;;;;;4.60;0.90;;;;;;;;;;4945197;28;20097;-70
2023/05/30 11:29:35;;;;;;;5.68;1.23;;;;;;;;;;4957074;28;20498;-70
2023/05/30 11:32:01;;;;;;;6.18;1.30;;;;;;;;;;4957309;28;20357;-70
2023/05/30 11:34:26;;;;;;;3.42;0.82;;;;;;;;;;4942540;28;20046;-70
2023/05/30 11:36:52;;;;;;;8.23;1.30;;;;;;;;;;4947575;28;20058;-72
2023/05/30 11:39:22;;;;;;;9.82;1.23;;;;;;;;;;5061729;28;20104;-72
2023/05/30 11:41:48;;;;;;;7.20;1.48;;;;;;;;;;5045165;28;20115;-71
2023/05/30 11:44:13;;;;;;;5.32;1.25;;;;;;;;;;5063395;28;20037;-71
2023/05/30 11:46:39;;;;;;;7.75;1.42;;;;;;;;;;5063242;28;20020;-71
2023/05/30 11:49:04;;;;;;;10.10;0.95;;;;;;;;;;5061766;28;20020;-71
2023/05/30 11:51:30;;;;;;;5.75;1.50;;;;;;;;;;5062777;28;20291;-71
2023/05/30 11:53:56;;;;;;;11.55;1.58;;;;;;;;;;5061513;28;20017;-73
2023/05/30 11:56:21;;;;;;;8.73;1.33;;;;;;;;;;5062797;28;20021;-71
2023/05/30 11:58:50;;;;;;;2.45;1.00;;;;;;;;;;5056504;28;20033;-72
2023/05/30 12:01:16;;;;;;;4.60;1.20;;;;;;;;;;4952352;28;20038;-71
2023/05/30 12:03:43;;;;;;;6.03;1.40;;;;;;;;;;4940676;28;20453;-69
2023/05/30 12:06:12;;;;;;;10.07;1.50;;;;;;;;;;4942061;28;20104;-71
2023/05/30 12:08:45;;;;;;;9.07;1.75;;;;;;;;;;4924668;28;20034;-71
2023/05/30 12:11:14;;;;;;;7.32;1.63;;;;;;;;;;4942207;28;20024;-70
2023/05/30 12:13:40;;;;;;;6.93;1.80;;;;;;;;;;4941930;28;20054;-71
2023/05/30 12:16:05;;;;;;;4.85;1.58;;;;;;;;;;4942121;28;20047;-70
2023/05/30 12:18:31;;;;;;;4.72;1.75;;;;;;;;;;4939958;28;20258;-70
2023/05/30 12:21:00;;;;;;;4.20;1.80;;;;;;;;;;4941655;28;20058;-71
2023/05/30 12:23:25;;;;;;;2.75;1.70;;;;;;;;;;4957687;28;20031;-69
2023/05/30 12:25:54;;;;;;;4.05;1.67;;;;;;;;;;4959727;28;20034;-70
2023/05/30 12:28:20;;;;;;;3.55;1.52;;;;;;;;;;4961058;28;20031;-70
2023/05/30 12:30:46;;;;;;;2.63;1.75;;;;;;;;;;4959641;28;20411;-68
2023/05/30 12:33:24;;;;;;;3.40;1.73;;;;;;;;;;4961107;28;20303;-71
2023/05/30 12:35:53;;;;;;;3.55;1.77;;;;;;;;;;4960917;28;20035;-70
2023/05/30 12:38:19;;;;;;;2.72;1.40;;;;;;;;;;5027164;28;20020;-71
2023/05/30 12:40:50;;;;;;;2.80;1.50;;;;;;;;;;5062121;28;20029;-71
2023/05/30 12:43:16;;;;;;;3.88;1.40;;;;;;;;;;5062390;28;20039;-71
2023/05/30 12:45:45;;;;;;;4.57;1.45;;;;;;;;;;5060788;28;20488;-70
2023/05/30 12:48:10;;;;;;;2.95;1.30;;;;;;;;;;5060175;28;20052;-71
2023/05/30 12:50:36;;;;;;;3.33;1.30;;;;;;;;;;5061462;28;20055;-71
2023/05/30 12:53:01;;;;;;;3.03;1.35;;;;;;;;;;5061835;28;20508;-72
2023/05/30 12:55:26;;;;;;;4.15;1.65;;;;;;;;;;5061925;28;20098;-72
2023/05/30 12:57:51;;;;;;;3.58;1.73;;;;;;;;;;5042595;28;20454;-71
2023/05/30 13:00:17;;;;;;;3.05;1.70;;;;;;;;;;5060001;28;20078;-71
2023/05/30 13:02:42;;;;;;;4.68;1.70;;;;;;;;;;5061474;28;20595;-70
2023/05/30 13:05:08;;;;;;;3.45;1.55;;;;;;;;;;5059733;28;20477;-69
2023/05/30 13:07:33;;;;;;;2.25;1.20;;;;;;;;;;5062227;28;20067;-69
2023/05/30 13:09:58;;;;;;;3.80;1.60;;;;;;;;;;5059168;28;20279;-71
2023/05/30 13:12:24;;;;;;;3.45;1.60;;;;;;;;;;5061920;28;20029;-71
2023/05/30 13:14:49;;;;;;;4.15;1.52;;;;;;;;;;5061388;28;20111;-71
2023/05/30 13:17:14;;;;;;;2.83;1.30;;;;;;;;;;5062122;28;20036;-70
2023/05/30 13:19:40;;;;;;;3.10;1.73;;;;;;;;;;5021184;28;20039;-70
2023/05/30 13:22:06;;;;;;;3.47;1.50;;;;;;;;;;4957611;28;20054;-70
2023/05/30 13:24:32;;;;;;;8.23;2.00;;;;;;;;;;4938825;28;20439;-71
2023/05/30 13:26:57;;;;;;;10.35;1.92;;;;;;;;;;4939084;28;20031;-71
2023/05/30 13:31:59;;;;;;;3.13;1.30;;;;;;;;;;4922560;28;21095;-67
2023/05/30 13:34:25;;;;;;;4.05;1.10;;;;;;;;;;4914232;28;20070;-68
2023/05/30 13:36:52;;;;;;;2.88;1.13;;;;;;;;;;4916228;28;20042;-69
2023/05/30 13:39:18;;;;;;;3.40;1.30;;;;;;;;;;4911587;28;20032;-68
2023/05/30 13:41:43;;;;;;;2.80;1.52;;;;;;;;;;4924284;28;20370;-69
2023/05/30 13:44:11;;;;;;;3.20;1.50;;;;;;;;;;4914946;28;20027;-69
2023/05/30 13:46:36;;;;;;;2.03;1.40;;;;;;;;;;4908159;28;22512;-70
2023/05/30 13:49:04;;;;;;;4.13;1.65;;;;;;;;;;4911580;28;20061;-69
2023/05/30 13:51:29;;;;;;;3.47;1.48;;;;;;;;;;4911827;28;20884;-70
2023/05/30 13:53:54;;;;;;;4.38;1.60;;;;;;;;;;4909739;28;20063;-70
2023/05/30 13:56:20;;;;;;;2.05;1.48;;;;;;;;;;4909445;28;20762;-68
2023/05/30 13:58:50;;;;;;;3.78;1.60;;;;;;;;;;4911617;28;20035;-73
2023/05/30 14:01:16;;;;;;;3.67;1.80;;;;;;;;;;4906122;28;20100;-70
2023/05/30 14:03:41;;;;;;;3.95;2.15;;;;;;;;;;4913200;28;20061;-71
2023/05/30 14:06:08;;;;;;;2.63;1.70;;;;;;;;;;4909185;28;20047;-71
2023/05/30 14:08:34;;;;;;;3.78;1.60;;;;;;;;;;4910869;28;20046;-70
2023/05/30 14:11:00;;;;;;;8.18;1.45;;;;;;;;;;4908894;28;20031;-69
2023/05/30 14:13:25;;;;;;;12.52;1.98;;;;;;;;;;4915517;28;20097;-69
2023/05/30 14:15:51;;;;;;;10.52;2.15;;;;;;;;;;4912240;28;21029;-69
2023/05/30 14:18:16;;;;;;;10.00;1.85;;;;;;;;;;4910071;28;20140;-70
2023/05/30 14:20:41;;;;;;;7.97;1.85;;;;;;;;;;4906941;28;20108;-69
2023/05/30 14:23:11;;;;;;;8.45;1.90;;;;;;;;;;4907510;28;20038;-68
2023/05/30 14:25:36;;;;;;;4.35;1.98;;;;;;;;;;4914638;28;20050;-69
2023/05/30 14:28:02;;;;;;;3.58;1.65;;;;;;;;;;4913506;28;20094;-69
2023/05/30 14:30:28;;;;;;;3.47;1.90;;;;;;;;;;4909837;28;20637;-69
2023/05/30 14:32:53;;;;;;;5.65;2.15;;;;;;;;;;4910873;28;21879;-70
2023/05/30 14:35:19;;;;;;;5.32;1.73;;;;;;;;;;4910620;28;20046;-69